sensor_id;sensor_type;location;lat;lon;timestamp;pressure;altitude;pressure_sealevel;temperature;humidity
45327;BME280;31062;49.678;24.560;2023-01-28T00:01:14;98473.41;;;0.57;75.13
45327;BME280;31062;49.678;24.560;2023-01-28T00:04:00;98469.47;;;0.47;75.70
45327;BME280;31062;49.678;24.560;2023-01-28T00:06:46;98489.00;;;0.57;75.08
45327;BME280;31062;49.678;24.560;2023-01-28T00:09:31;98466.75;;;0.42;75.44
45327;BME280;31062;49.678;24.560;2023-01-28T00:12:17;98497.44;;;0.64;75.92
45327;BME280;31062;49.678;24.560;2023-01-28T00:15:02;98453.38;;;0.32;75.12
45327;BME280;31062;49.678;24.560;2023-01-28T00:17:48;98458.84;;;0.32;74.58
45327;BME280;31062;49.678;24.560;2023-01-28T00:20:34;98500.41;;;0.61;74.88
45327;BME280;31062;49.678;24.560;2023-01-28T00:23:19;98308.22;;;-0.70;75.46
45327;BME280;31062;49.678;24.560;2023-01-28T00:26:09;98563.38;;;0.68;75.56
45327;BME280;31062;49.678;24.560;2023-01-28T00:28:57;98500.34;;;0.72;75.59
45327;BME280;31062;49.678;24.560;2023-01-28T00:31:43;98305.00;;;-0.69;74.52
45327;BME280;31062;49.678;24.560;2023-01-28T00:34:28;98501.38;;;0.69;74.82
45327;BME280;31062;49.678;24.560;2023-01-28T00:37:15;98510.31;;;0.64;75.11
45327;BME280;31062;49.678;24.560;2023-01-28T00:40:00;98503.13;;;0.61;74.78
45327;BME280;31062;49.678;24.560;2023-01-28T00:42:49;98504.13;;;0.63;75.06
45327;BME280;31062;49.678;24.560;2023-01-28T00:45:35;98383.16;;;-0.19;74.45
45327;BME280;31062;49.678;24.560;2023-01-28T00:48:20;98505.66;;;0.42;74.90
45327;BME280;31062;49.678;24.560;2023-01-28T00:51:07;98331.47;;;-0.53;74.68
45327;BME280;31062;49.678;24.560;2023-01-28T00:53:52;98528.66;;;0.69;75.08
45327;BME280;31062;49.678;24.560;2023-01-28T00:56:38;98478.34;;;0.59;74.72
45327;BME280;31062;49.678;24.560;2023-01-28T00:59:24;98391.03;;;0.01;74.13
45327;BME280;31062;49.678;24.560;2023-01-28T01:02:09;98411.81;;;0.15;74.07
45327;BME280;31062;49.678;24.560;2023-01-28T01:04:58;98537.53;;;0.86;74.62
45327;BME280;31062;49.678;24.560;2023-01-28T01:07:44;98476.31;;;0.70;74.36
45327;BME280;31062;49.678;24.560;2023-01-28T01:10:29;98302.00;;;-0.43;73.76
45327;BME280;31062;49.678;24.560;2023-01-28T01:13:17;98449.09;;;0.59;73.88
45327;BME280;31062;49.678;24.560;2023-01-28T01:18:52;98382.81;;;0.12;73.97
45327;BME280;31062;49.678;24.560;2023-01-28T01:21:38;98478.78;;;0.74;73.70
45327;BME280;31062;49.678;24.560;2023-01-28T01:24:25;98505.97;;;0.91;73.37
45327;BME280;31062;49.678;24.560;2023-01-28T01:27:14;98549.41;;;0.94;73.53
45327;BME280;31062;49.678;24.560;2023-01-28T01:30:02;98504.50;;;0.90;73.04
45327;BME280;31062;49.678;24.560;2023-01-28T01:32:51;98361.59;;;-0.06;73.47
45327;BME280;31062;49.678;24.560;2023-01-28T01:35:37;98480.22;;;0.80;73.20
45327;BME280;31062;49.678;24.560;2023-01-28T01:38:23;98494.59;;;0.87;72.78
45327;BME280;31062;49.678;24.560;2023-01-28T01:41:22;98356.34;;;-0.04;72.66
45327;BME280;31062;49.678;24.560;2023-01-28T01:47:40;98485.97;;;0.77;73.19
45327;BME280;31062;49.678;24.560;2023-01-28T01:50:40;98514.66;;;0.95;72.97
45327;BME280;31062;49.678;24.560;2023-01-28T01:53:27;98302.50;;;-0.45;72.91
45327;BME280;31062;49.678;24.560;2023-01-28T01:56:16;98478.28;;;0.75;73.11
45327;BME280;31062;49.678;24.560;2023-01-28T01:59:04;98518.63;;;0.99;73.75
45327;BME280;31062;49.678;24.560;2023-01-28T02:01:56;98301.75;;;-0.45;72.50
45327;BME280;31062;49.678;24.560;2023-01-28T02:04:43;98515.69;;;0.86;72.92
45327;BME280;31062;49.678;24.560;2023-01-28T02:07:33;98312.91;;;-0.49;73.50
45327;BME280;31062;49.678;24.560;2023-01-28T02:10:19;98347.53;;;-0.32;73.24
45327;BME280;31062;49.678;24.560;2023-01-28T02:13:07;98496.91;;;0.66;73.51
45327;BME280;31062;49.678;24.560;2023-01-28T02:15:53;98514.53;;;0.70;73.89
45327;BME280;31062;49.678;24.560;2023-01-28T02:18:40;98462.78;;;0.43;73.66
45327;BME280;31062;49.678;24.560;2023-01-28T02:34:09;98497.41;;;0.70;73.79
45327;BME280;31062;49.678;24.560;2023-01-28T02:37:16;98490.00;;;0.65;73.95
45327;BME280;31062;49.678;24.560;2023-01-28T02:40:12;98503.38;;;0.63;73.91
45327;BME280;31062;49.678;24.560;2023-01-28T02:43:02;98531.41;;;0.63;74.60
45327;BME280;31062;49.678;24.560;2023-01-28T02:45:48;98370.06;;;-0.32;74.45
45327;BME280;31062;49.678;24.560;2023-01-28T02:48:52;98506.34;;;0.65;74.40
45327;BME280;31062;49.678;24.560;2023-01-28T02:54:56;98508.31;;;0.70;74.63
45327;BME280;31062;49.678;24.560;2023-01-28T02:57:53;98514.25;;;0.74;75.11
45327;BME280;31062;49.678;24.560;2023-01-28T03:01:07;98513.50;;;0.73;74.61
45327;BME280;31062;49.678;24.560;2023-01-28T03:03:57;98513.78;;;0.70;74.47
45327;BME280;31062;49.678;24.560;2023-01-28T03:06:47;98486.03;;;0.55;75.02
45327;BME280;31062;49.678;24.560;2023-01-28T03:09:35;98505.81;;;0.72;74.66
45327;BME280;31062;49.678;24.560;2023-01-28T03:12:24;98511.28;;;0.72;74.75
45327;BME280;31062;49.678;24.560;2023-01-28T03:15:36;98343.06;;;-0.35;75.17
45327;BME280;31062;49.678;24.560;2023-01-28T03:18:45;98320.09;;;-0.51;74.91
45327;BME280;31062;49.678;24.560;2023-01-28T03:21:53;98507.50;;;0.86;74.77
45327;BME280;31062;49.678;24.560;2023-01-28T03:25:01;98481.81;;;0.65;74.93
45327;BME280;31062;49.678;24.560;2023-01-28T03:28:10;98499.84;;;0.79;75.06
45327;BME280;31062;49.678;24.560;2023-01-28T03:31:19;98480.84;;;0.57;74.76
45327;BME280;31062;49.678;24.560;2023-01-28T03:34:25;98305.00;;;-0.58;74.94
45327;BME280;31062;49.678;24.560;2023-01-28T03:37:31;98530.38;;;0.77;74.97
45327;BME280;31062;49.678;24.560;2023-01-28T03:40:28;98471.91;;;0.56;75.09
45327;BME280;31062;49.678;24.560;2023-01-28T03:43:14;98481.56;;;0.57;74.96
45327;BME280;31062;49.678;24.560;2023-01-28T03:46:02;98477.34;;;0.56;75.14
45327;BME280;31062;49.678;24.560;2023-01-28T03:48:50;98469.50;;;0.42;75.09
45327;BME280;31062;49.678;24.560;2023-01-28T03:51:35;98452.66;;;0.32;75.39
45327;BME280;31062;49.678;24.560;2023-01-28T03:54:21;98505.63;;;0.64;75.37
45327;BME280;31062;49.678;24.560;2023-01-28T03:57:07;98298.59;;;-0.77;75.67
45327;BME280;31062;49.678;24.560;2023-01-28T03:59:52;98310.47;;;-0.69;75.89
45327;BME280;31062;49.678;24.560;2023-01-28T04:02:39;98375.97;;;-0.22;75.98
45327;BME280;31062;49.678;24.560;2023-01-28T04:05:28;98506.84;;;0.69;75.25
45327;BME280;31062;49.678;24.560;2023-01-28T04:08:16;98470.97;;;0.37;75.64
45327;BME280;31062;49.678;24.560;2023-01-28T04:11:19;98522.03;;;0.53;75.55
45327;BME280;31062;49.678;24.560;2023-01-28T04:14:05;98506.88;;;0.58;75.89
45327;BME280;31062;49.678;24.560;2023-01-28T04:17:00;98474.19;;;0.47;75.61
45327;BME280;31062;49.678;24.560;2023-01-28T04:19:46;98343.84;;;-0.46;75.20
45327;BME280;31062;49.678;24.560;2023-01-28T04:22:34;98494.00;;;0.53;75.49
45327;BME280;31062;49.678;24.560;2023-01-28T04:25:19;98363.88;;;-0.32;75.22
45327;BME280;31062;49.678;24.560;2023-01-28T04:28:06;98313.91;;;-0.63;75.54
45327;BME280;31062;49.678;24.560;2023-01-28T04:30:52;98439.06;;;0.21;74.88
45327;BME280;31062;49.678;24.560;2023-01-28T04:34:00;98521.19;;;0.75;75.09
45327;BME280;31062;49.678;24.560;2023-01-28T04:36:56;98527.16;;;0.68;75.12
45327;BME280;31062;49.678;24.560;2023-01-28T04:40:02;98503.19;;;0.44;75.50
45327;BME280;31062;49.678;24.560;2023-01-28T04:42:58;98531.66;;;0.60;75.50
45327;BME280;31062;49.678;24.560;2023-01-28T04:46:11;98530.66;;;0.63;75.56
45327;BME280;31062;49.678;24.560;2023-01-28T04:49:00;98496.50;;;0.39;75.91
45327;BME280;31062;49.678;24.560;2023-01-28T04:52:09;98526.22;;;0.49;75.39
45327;BME280;31062;49.678;24.560;2023-01-28T04:55:14;98374.81;;;-0.55;75.29
45327;BME280;31062;49.678;24.560;2023-01-28T04:58:00;98427.50;;;-0.35;75.79
45327;BME280;31062;49.678;24.560;2023-01-28T05:00:46;98540.41;;;0.25;75.53
45327;BME280;31062;49.678;24.560;2023-01-28T05:03:33;98540.38;;;0.36;76.25
45327;BME280;31062;49.678;24.560;2023-01-28T05:06:22;98337.19;;;-1.06;76.31
45327;BME280;31062;49.678;24.560;2023-01-28T05:09:11;98421.09;;;-0.44;76.48
45327;BME280;31062;49.678;24.560;2023-01-28T05:11:57;98388.41;;;-0.71;76.00
45327;BME280;31062;49.678;24.560;2023-01-28T05:14:43;98544.59;;;0.43;76.06
45327;BME280;31062;49.678;24.560;2023-01-28T05:17:34;98582.53;;;0.46;76.42
45327;BME280;31062;49.678;24.560;2023-01-28T05:20:19;98469.34;;;-0.05;75.85
45327;BME280;31062;49.678;24.560;2023-01-28T05:23:07;98554.00;;;0.53;75.86
45327;BME280;31062;49.678;24.560;2023-01-28T05:26:00;98559.47;;;0.53;75.96
45327;BME280;31062;49.678;24.560;2023-01-28T05:28:46;98548.84;;;0.32;76.18
45327;BME280;31062;49.678;24.560;2023-01-28T05:31:31;98357.97;;;-0.81;76.23
45327;BME280;31062;49.678;24.560;2023-01-28T05:34:16;98513.88;;;0.25;76.31
45327;BME280;31062;49.678;24.560;2023-01-28T05:37:03;98561.44;;;0.58;75.82
45327;BME280;31062;49.678;24.560;2023-01-28T05:39:54;98363.69;;;-0.79;75.55
45327;BME280;31062;49.678;24.560;2023-01-28T05:42:40;98558.19;;;0.54;75.69
45327;BME280;31062;49.678;24.560;2023-01-28T05:45:51;98561.44;;;0.58;76.40
45327;BME280;31062;49.678;24.560;2023-01-28T05:48:55;98561.22;;;0.39;76.12
45327;BME280;31062;49.678;24.560;2023-01-28T05:52:00;98570.13;;;0.56;75.89
45327;BME280;31062;49.678;24.560;2023-01-28T05:54:48;98577.81;;;0.58;75.86
45327;BME280;31062;49.678;24.560;2023-01-28T05:57:34;98596.63;;;0.67;75.69
45327;BME280;31062;49.678;24.560;2023-01-28T06:00:20;98588.44;;;0.61;75.39
45327;BME280;31062;49.678;24.560;2023-01-28T06:03:07;98557.97;;;0.52;75.86
45327;BME280;31062;49.678;24.560;2023-01-28T06:05:53;98358.47;;;-0.88;75.79
45327;BME280;31062;49.678;24.560;2023-01-28T06:08:39;98597.13;;;0.60;76.19
45327;BME280;31062;49.678;24.560;2023-01-28T06:11:27;98576.78;;;0.61;76.26
45327;BME280;31062;49.678;24.560;2023-01-28T06:14:20;98569.84;;;0.60;76.41
45327;BME280;31062;49.678;24.560;2023-01-28T06:17:32;98355.53;;;-0.85;76.23
45327;BME280;31062;49.678;24.560;2023-01-28T06:20:25;98565.66;;;0.53;76.13
45327;BME280;31062;49.678;24.560;2023-01-28T06:23:11;98567.13;;;0.54;76.17
45327;BME280;31062;49.678;24.560;2023-01-28T06:25:58;98572.34;;;0.58;75.72
45327;BME280;31062;49.678;24.560;2023-01-28T06:28:44;98615.72;;;0.67;76.55
45327;BME280;31062;49.678;24.560;2023-01-28T06:31:29;98559.44;;;0.64;76.02
45327;BME280;31062;49.678;24.560;2023-01-28T06:34:21;98546.56;;;0.59;75.32
45327;BME280;31062;49.678;24.560;2023-01-28T06:37:08;98446.31;;;-0.15;75.61
45327;BME280;31062;49.678;24.560;2023-01-28T06:39:56;98570.34;;;0.64;75.44
45327;BME280;31062;49.678;24.560;2023-01-28T06:42:41;98585.69;;;0.78;75.53
45327;BME280;31062;49.678;24.560;2023-01-28T06:45:33;98526.78;;;0.42;75.63
45327;BME280;31062;49.678;24.560;2023-01-28T06:48:20;98599.88;;;0.65;75.56
45327;BME280;31062;49.678;24.560;2023-01-28T06:51:07;98597.09;;;0.82;75.47
45327;BME280;31062;49.678;24.560;2023-01-28T06:53:55;98386.94;;;-0.61;75.80
45327;BME280;31062;49.678;24.560;2023-01-28T06:56:41;98605.03;;;0.80;75.22
45327;BME280;31062;49.678;24.560;2023-01-28T06:59:27;98390.66;;;-0.70;75.70
45327;BME280;31062;49.678;24.560;2023-01-28T07:02:13;98405.75;;;-0.63;75.22
45327;BME280;31062;49.678;24.560;2023-01-28T07:05:00;98609.50;;;0.72;75.83
45327;BME280;31062;49.678;24.560;2023-01-28T07:07:46;98617.19;;;0.73;75.70
45327;BME280;31062;49.678;24.560;2023-01-28T07:10:32;98624.66;;;0.73;75.21
45327;BME280;31062;49.678;24.560;2023-01-28T07:13:18;98622.94;;;0.70;75.69
45327;BME280;31062;49.678;24.560;2023-01-28T07:16:03;98413.91;;;-0.69;75.75
45327;BME280;31062;49.678;24.560;2023-01-28T07:18:52;98618.97;;;0.65;75.80
45327;BME280;31062;49.678;24.560;2023-01-28T07:21:38;98584.28;;;0.44;76.19
45327;BME280;31062;49.678;24.560;2023-01-28T07:24:26;98628.44;;;0.48;76.12
45327;BME280;31062;49.678;24.560;2023-01-28T07:27:11;98595.19;;;0.44;76.20
45327;BME280;31062;49.678;24.560;2023-01-28T07:29:57;98625.16;;;0.60;76.45
45327;BME280;31062;49.678;24.560;2023-01-28T07:32:43;98259.44;;;-1.96;76.22
45327;BME280;31062;49.678;24.560;2023-01-28T07:35:30;98485.72;;;-0.33;76.18
45327;BME280;31062;49.678;24.560;2023-01-28T07:38:16;98605.59;;;0.51;76.44
45327;BME280;31062;49.678;24.560;2023-01-28T07:41:02;98591.22;;;0.45;76.89
45327;BME280;31062;49.678;24.560;2023-01-28T07:43:50;98639.31;;;0.70;76.46
45327;BME280;31062;49.678;24.560;2023-01-28T07:46:36;98633.84;;;0.70;76.64
45327;BME280;31062;49.678;24.560;2023-01-28T07:49:22;98628.88;;;0.63;76.95
45327;BME280;31062;49.678;24.560;2023-01-28T07:52:08;98635.13;;;0.47;76.59
45327;BME280;31062;49.678;24.560;2023-01-28T07:55:03;98647.22;;;0.68;76.77
45327;BME280;31062;49.678;24.560;2023-01-28T07:57:57;98602.13;;;0.45;76.50
45327;BME280;31062;49.678;24.560;2023-01-28T08:00:43;98479.78;;;-0.43;76.83
45327;BME280;31062;49.678;24.560;2023-01-28T08:03:29;98647.94;;;0.79;76.31
45327;BME280;31062;49.678;24.560;2023-01-28T08:06:32;98638.78;;;0.77;76.29
45327;BME280;31062;49.678;24.560;2023-01-28T08:09:23;98599.88;;;0.49;76.23
45327;BME280;31062;49.678;24.560;2023-01-28T08:12:09;98639.28;;;0.81;75.77
45327;BME280;31062;49.678;24.560;2023-01-28T08:14:59;98610.53;;;0.58;75.71
45327;BME280;31062;49.678;24.560;2023-01-28T08:18:06;98633.81;;;0.81;75.55
45327;BME280;31062;49.678;24.560;2023-01-28T08:21:07;98614.50;;;0.57;75.63
45327;BME280;31062;49.678;24.560;2023-01-28T08:23:54;98642.00;;;0.75;76.16
45327;BME280;31062;49.678;24.560;2023-01-28T08:26:41;98639.78;;;0.74;76.43
45327;BME280;31062;49.678;24.560;2023-01-28T08:29:27;98600.91;;;0.46;76.00
45327;BME280;31062;49.678;24.560;2023-01-28T08:32:13;98438.91;;;-0.59;75.89
45327;BME280;31062;49.678;24.560;2023-01-28T08:34:59;98646.22;;;0.82;76.02
45327;BME280;31062;49.678;24.560;2023-01-28T08:37:45;98639.28;;;0.81;75.46
45327;BME280;31062;49.678;24.560;2023-01-28T08:40:31;98520.63;;;0.02;75.49
45327;BME280;31062;49.678;24.560;2023-01-28T08:43:18;98433.72;;;-0.52;75.95
45327;BME280;31062;49.678;24.560;2023-01-28T08:46:05;98641.72;;;0.90;76.24
45327;BME280;31062;49.678;24.560;2023-01-28T08:48:52;98653.91;;;0.78;75.88
45327;BME280;31062;49.678;24.560;2023-01-28T08:51:37;98442.13;;;-0.38;75.62
45327;BME280;31062;49.678;24.560;2023-01-28T08:54:23;98510.94;;;0.12;75.70
45327;BME280;31062;49.678;24.560;2023-01-28T08:57:08;98645.69;;;1.00;76.29
45327;BME280;31062;49.678;24.560;2023-01-28T08:59:54;98645.19;;;0.96;75.40
45327;BME280;31062;49.678;24.560;2023-01-28T09:02:41;98627.84;;;0.88;75.43
45327;BME280;31062;49.678;24.560;2023-01-28T09:05:26;98656.63;;;0.78;75.57
45327;BME280;31062;49.678;24.560;2023-01-28T09:08:14;98653.63;;;0.98;75.18
45327;BME280;31062;49.678;24.560;2023-01-28T09:10:59;98446.09;;;-0.39;75.71
45327;BME280;31062;49.678;24.560;2023-01-28T09:13:45;98612.97;;;0.78;75.33
45327;BME280;31062;49.678;24.560;2023-01-28T09:16:31;98647.19;;;1.01;75.44
45327;BME280;31062;49.678;24.560;2023-01-28T09:19:17;98643.19;;;1.02;75.73
45327;BME280;31062;49.678;24.560;2023-01-28T09:22:03;98631.31;;;0.94;75.47
45327;BME280;31062;49.678;24.560;2023-01-28T09:24:48;98647.22;;;0.79;75.45
45327;BME280;31062;49.678;24.560;2023-01-28T09:27:34;98434.22;;;-0.36;75.55
45327;BME280;31062;49.678;24.560;2023-01-28T09:30:20;98611.25;;;0.80;75.69
45327;BME280;31062;49.678;24.560;2023-01-28T09:33:06;98636.75;;;0.94;74.86
45327;BME280;31062;49.678;24.560;2023-01-28T09:35:52;98612.97;;;0.78;75.52
45327;BME280;31062;49.678;24.560;2023-01-28T09:38:38;98626.13;;;0.74;75.43
45327;BME280;31062;49.678;24.560;2023-01-28T09:41:28;98609.47;;;0.94;75.73
45327;BME280;31062;49.678;24.560;2023-01-28T09:47:27;98607.16;;;1.09;75.86
45327;BME280;31062;49.678;24.560;2023-01-28T09:50:19;98628.44;;;1.33;75.81
45327;BME280;31062;49.678;24.560;2023-01-28T09:53:16;98428.94;;;0.05;74.98
45327;BME280;31062;49.678;24.560;2023-01-28T09:56:26;98578.16;;;1.06;74.88
45327;BME280;31062;49.678;24.560;2023-01-28T09:59:21;98630.13;;;1.42;74.87
45327;BME280;31062;49.678;24.560;2023-01-28T10:08:47;98630.66;;;1.35;74.56
45327;BME280;31062;49.678;24.560;2023-01-28T10:11:57;98603.97;;;1.05;75.02
45327;BME280;31062;49.678;24.560;2023-01-28T10:18:08;98634.97;;;1.08;75.63
45327;BME280;31062;49.678;24.560;2023-01-28T10:21:29;98628.19;;;1.26;75.50
45327;BME280;31062;49.678;24.560;2023-01-28T10:24:39;98633.13;;;1.33;75.43
45327;BME280;31062;49.678;24.560;2023-01-28T10:27:30;98472.75;;;0.23;75.44
45327;BME280;31062;49.678;24.560;2023-01-28T10:30:20;98486.63;;;0.25;75.37
45327;BME280;31062;49.678;24.560;2023-01-28T10:36:08;98457.84;;;0.35;75.49
45327;BME280;31062;49.678;24.560;2023-01-28T10:38:54;98621.41;;;1.49;75.22
45327;BME280;31062;49.678;24.560;2023-01-28T10:41:42;98588.50;;;1.25;75.10
45327;BME280;31062;49.678;24.560;2023-01-28T10:44:43;98435.06;;;0.27;74.86
45327;BME280;31062;49.678;24.560;2023-01-28T10:47:37;98618.44;;;1.47;75.14
45327;BME280;31062;49.678;24.560;2023-01-28T10:50:26;98619.69;;;1.46;75.28
45327;BME280;31062;49.678;24.560;2023-01-28T10:53:13;98593.41;;;1.32;74.97
45327;BME280;31062;49.678;24.560;2023-01-28T10:55:59;98604.09;;;1.35;75.24
45327;BME280;31062;49.678;24.560;2023-01-28T11:02:27;98558.28;;;1.11;75.48
45327;BME280;31062;49.678;24.560;2023-01-28T11:05:19;98568.69;;;1.07;75.39
45327;BME280;31062;49.678;24.560;2023-01-28T11:08:16;98589.25;;;1.25;75.47
45327;BME280;31062;49.678;24.560;2023-01-28T11:11:13;98585.25;;;1.26;75.65
45327;BME280;31062;49.678;24.560;2023-01-28T11:13:59;98571.19;;;1.05;75.86
45327;BME280;31062;49.678;24.560;2023-01-28T11:16:45;98589.97;;;1.26;76.25
45327;BME280;31062;49.678;24.560;2023-01-28T11:19:35;98585.75;;;1.30;76.33
45327;BME280;31062;49.678;24.560;2023-01-28T11:22:41;98580.00;;;1.34;76.39
45327;BME280;31062;49.678;24.560;2023-01-28T11:25:35;98569.31;;;1.36;76.31
45327;BME280;31062;49.678;24.560;2023-01-28T11:28:22;98581.22;;;1.38;76.28
45327;BME280;31062;49.678;24.560;2023-01-28T11:31:09;98369.72;;;0.05;76.22
45327;BME280;31062;49.678;24.560;2023-01-28T11:33:58;98370.47;;;0.00;75.46
45327;BME280;31062;49.678;24.560;2023-01-28T11:36:53;98553.22;;;1.27;75.77
45327;BME280;31062;49.678;24.560;2023-01-28T11:39:41;98578.50;;;1.33;75.84
45327;BME280;31062;49.678;24.560;2023-01-28T11:42:29;98398.44;;;0.17;76.11
45327;BME280;31062;49.678;24.560;2023-01-28T11:45:17;98542.34;;;1.15;75.91
45327;BME280;31062;49.678;24.560;2023-01-28T11:48:29;98558.44;;;1.30;75.98
45327;BME280;31062;49.678;24.560;2023-01-28T11:54:19;98563.84;;;1.36;76.21
45327;BME280;31062;49.678;24.560;2023-01-28T11:57:20;98550.00;;;1.28;75.94
45327;BME280;31062;49.678;24.560;2023-01-28T12:03:51;98565.88;;;1.30;75.80
45327;BME280;31062;49.678;24.560;2023-01-28T12:09:59;98545.84;;;1.10;75.85
45327;BME280;31062;49.678;24.560;2023-01-28T12:16:01;98591.22;;;1.25;75.89
45327;BME280;31062;49.678;24.560;2023-01-28T12:22:42;98550.72;;;1.29;75.75
45327;BME280;31062;49.678;24.560;2023-01-28T12:28:41;98573.56;;;1.26;75.62
45327;BME280;31062;49.678;24.560;2023-01-28T12:37:28;98556.22;;;1.23;75.49
45327;BME280;31062;49.678;24.560;2023-01-28T12:46:26;98555.22;;;1.20;75.42
45327;BME280;31062;49.678;24.560;2023-01-28T12:49:35;98562.19;;;1.21;75.50
45327;BME280;31062;49.678;24.560;2023-01-28T12:52:23;98369.75;;;-0.17;75.10
45327;BME280;31062;49.678;24.560;2023-01-28T12:55:16;98427.38;;;0.26;75.01
45327;BME280;31062;49.678;24.560;2023-01-28T12:58:09;98573.09;;;1.21;75.19
45327;BME280;31062;49.678;24.560;2023-01-28T13:01:02;98566.44;;;1.17;75.29
45327;BME280;31062;49.678;24.560;2023-01-28T13:03:57;98523.09;;;0.91;75.49
45327;BME280;31062;49.678;24.560;2023-01-28T13:07:01;98584.25;;;1.29;75.18
45327;BME280;31062;49.678;24.560;2023-01-28T13:10:24;98588.66;;;1.38;75.66
45327;BME280;31062;49.678;24.560;2023-01-28T13:13:29;98382.81;;;0.07;74.71
45327;BME280;31062;49.678;24.560;2023-01-28T13:16:16;98379.38;;;0.00;74.51
45327;BME280;31062;49.678;24.560;2023-01-28T13:22:21;98594.38;;;1.40;74.65
45327;BME280;31062;49.678;24.560;2023-01-28T13:28:05;98596.34;;;1.45;74.36
45327;BME280;31062;49.678;24.560;2023-01-28T13:30:51;98591.88;;;1.42;74.23
45327;BME280;31062;49.678;24.560;2023-01-28T13:36:38;98637.09;;;1.37;74.57
45327;BME280;31062;49.678;24.560;2023-01-28T13:39:28;98397.22;;;0.02;74.25
45327;BME280;31062;49.678;24.560;2023-01-28T13:42:33;98601.38;;;1.30;74.35
45327;BME280;31062;49.678;24.560;2023-01-28T13:45:21;98575.19;;;1.04;74.95
45327;BME280;31062;49.678;24.560;2023-01-28T13:48:20;98600.41;;;1.21;74.90
45327;BME280;31062;49.678;24.560;2023-01-28T13:51:14;98600.94;;;1.14;74.77
45327;BME280;31062;49.678;24.560;2023-01-28T13:54:14;98604.66;;;1.17;75.19
45327;BME280;31062;49.678;24.560;2023-01-28T14:06:47;98615.38;;;1.09;75.77
45327;BME280;31062;49.678;24.560;2023-01-28T14:09:58;98617.84;;;1.07;75.11
45327;BME280;31062;49.678;24.560;2023-01-28T14:18:55;98614.41;;;1.01;76.23
45327;BME280;31062;49.678;24.560;2023-01-28T14:21:45;98601.03;;;0.92;76.22
45327;BME280;31062;49.678;24.560;2023-01-28T14:24:30;98409.69;;;-0.31;75.62
45327;BME280;31062;49.678;24.560;2023-01-28T14:27:23;98431.97;;;-0.21;75.28
45327;BME280;31062;49.678;24.560;2023-01-28T14:30:22;98650.13;;;1.03;76.03
45327;BME280;31062;49.678;24.560;2023-01-28T14:33:11;98626.31;;;0.98;75.99
45327;BME280;31062;49.678;24.560;2023-01-28T14:35:57;98625.84;;;0.94;76.32
45327;BME280;31062;49.678;24.560;2023-01-28T14:38:44;98615.50;;;0.65;76.13
45327;BME280;31062;49.678;24.560;2023-01-28T14:41:31;98634.81;;;0.89;76.41
45327;BME280;31062;49.678;24.560;2023-01-28T14:44:27;98539.16;;;0.31;76.85
45327;BME280;31062;49.678;24.560;2023-01-28T14:47:45;98625.34;;;0.90;76.01
45327;BME280;31062;49.678;24.560;2023-01-28T14:53:37;98629.34;;;0.78;77.11
45327;BME280;31062;49.678;24.560;2023-01-28T14:59:45;98632.09;;;0.67;76.88
45327;BME280;31062;49.678;24.560;2023-01-28T15:02:32;98606.84;;;0.33;77.69
45327;BME280;31062;49.678;24.560;2023-01-28T15:05:27;98648.75;;;0.58;78.07
45327;BME280;31062;49.678;24.560;2023-01-28T15:08:20;98654.19;;;0.58;77.79
45327;BME280;31062;49.678;24.560;2023-01-28T15:11:12;98622.94;;;0.36;77.84
45327;BME280;31062;49.678;24.560;2023-01-28T15:13:59;98659.16;;;0.59;77.92
45327;BME280;31062;49.678;24.560;2023-01-28T15:16:47;98655.69;;;0.59;78.31
45327;BME280;31062;49.678;24.560;2023-01-28T15:19:35;98648.00;;;0.52;78.21
45327;BME280;31062;49.678;24.560;2023-01-28T15:22:26;98501.06;;;-0.58;77.63
45327;BME280;31062;49.678;24.560;2023-01-28T15:25:21;98635.88;;;0.42;77.86
45327;BME280;31062;49.678;24.560;2023-01-28T15:28:34;98518.88;;;-0.46;77.31
45327;BME280;31062;49.678;24.560;2023-01-28T15:31:34;98652.72;;;0.46;77.83
45327;BME280;31062;49.678;24.560;2023-01-28T15:34:24;98495.09;;;-0.67;77.39
45327;BME280;31062;49.678;24.560;2023-01-28T15:37:15;98595.72;;;0.03;77.60
45327;BME280;31062;49.678;24.560;2023-01-28T15:40:05;98461.16;;;-0.94;77.08
45327;BME280;31062;49.678;24.560;2023-01-28T15:42:53;98654.22;;;0.35;77.34
45327;BME280;31062;49.678;24.560;2023-01-28T15:45:44;98429.69;;;-1.17;76.99
45327;BME280;31062;49.678;24.560;2023-01-28T15:48:32;98669.31;;;0.42;77.64
45327;BME280;31062;49.678;24.560;2023-01-28T15:51:29;98666.09;;;0.44;77.80
45327;BME280;31062;49.678;24.560;2023-01-28T15:54:15;98645.28;;;0.40;77.74
45327;BME280;31062;49.678;24.560;2023-01-28T15:57:09;98668.34;;;0.45;77.22
45327;BME280;31062;49.678;24.560;2023-01-28T16:03:07;98674.53;;;0.46;77.20
45327;BME280;31062;49.678;24.560;2023-01-28T16:05:58;98660.91;;;0.40;77.15
45327;BME280;31062;49.678;24.560;2023-01-28T16:08:55;98688.41;;;0.42;77.22
45327;BME280;31062;49.678;24.560;2023-01-28T16:11:43;98660.91;;;0.34;77.25
45327;BME280;31062;49.678;24.560;2023-01-28T16:14:37;98664.13;;;0.38;77.26
45327;BME280;31062;49.678;24.560;2023-01-28T16:17:37;98656.19;;;0.29;77.27
45327;BME280;31062;49.678;24.560;2023-01-28T16:20:26;98618.00;;;0.18;77.25
45327;BME280;31062;49.678;24.560;2023-01-28T16:23:20;98671.31;;;0.58;77.12
45327;BME280;31062;49.678;24.560;2023-01-28T16:26:22;98465.91;;;-0.72;77.19
45327;BME280;31062;49.678;24.560;2023-01-28T16:29:17;98653.94;;;0.61;76.92
45327;BME280;31062;49.678;24.560;2023-01-28T16:32:02;98511.72;;;-0.43;76.44
45327;BME280;31062;49.678;24.560;2023-01-28T16:34:48;98443.38;;;-0.84;77.47
45327;BME280;31062;49.678;24.560;2023-01-28T16:37:33;98667.56;;;0.67;76.89
45327;BME280;31062;49.678;24.560;2023-01-28T16:40:21;98670.56;;;0.69;76.85
45327;BME280;31062;49.678;24.560;2023-01-28T16:43:09;98686.94;;;0.69;76.79
45327;BME280;31062;49.678;24.560;2023-01-28T16:45:56;98460.47;;;-0.67;76.04
45327;BME280;31062;49.678;24.560;2023-01-28T16:48:42;98650.97;;;0.59;76.51
45327;BME280;31062;49.678;24.560;2023-01-28T16:51:36;98486.19;;;-0.57;75.81